Terminal Aerodrome Forecast
Issued by NWS

Home | Current Version | Previous Version | Text Only | Print | Product List | Glossary On
Versions: 1 2 3 4 5 6 7 8 9 10 11 12 13 14 15 16 17 18 19 20 21 22 23 24 25
000
FTUS43 KLSX 031700
TAFSUS
TAF
KSUS 031720Z 0318/0418 22014G22KT P6SM OVC012
      TEMPO 0320/0324 BKN007
     FM040000 30010KT P6SM OVC015
     FM040500 34014KT P6SM SCT007 OVC015
     FM041600 35012KT P6SM SCT015 OVC040=

USA.gov is the U.S. government's official web portal to all federal, state and local government web resources and services.